createdAt,value
2019-03-26T00:01:45.318Z,88.34
2019-03-26T00:04:14.820Z,86.09
2019-03-26T00:06:46.983Z,85.04
2019-03-26T00:09:17.018Z,86.20
2019-03-26T00:11:46.688Z,87.53
2019-03-26T00:14:16.979Z,87.99
2019-03-26T00:16:51.062Z,87.12
2019-03-26T00:22:01.645Z,88.73
2019-03-26T00:27:12.555Z,89.11
2019-03-26T00:29:43.321Z,87.98
2019-03-26T00:32:14.699Z,88.06
2019-03-26T00:34:44.478Z,88.63
2019-03-26T00:37:18.130Z,88.48
2019-03-26T00:39:50.702Z,88.22
2019-03-26T00:42:19.895Z,87.17
2019-03-26T00:44:52.810Z,88.42
2019-03-26T00:47:23.193Z,88.99
2019-03-26T00:49:55.796Z,89.05
2019-03-26T00:52:44.135Z,88.72
2019-03-26T00:55:05.778Z,88.82
2019-03-26T00:57:41.781Z,89.44
2019-03-26T01:00:12.879Z,87.83
2019-03-26T01:02:42.911Z,89.08
2019-03-26T01:07:57.471Z,89.11
2019-03-26T01:13:08.902Z,88.65
2019-03-26T01:15:42.319Z,89.56
2019-03-26T01:18:15.131Z,88.49
2019-03-26T01:20:45.524Z,86.59
2019-03-26T01:23:17.420Z,86.73
2019-03-26T01:25:48.661Z,88.21
2019-03-26T01:28:18.030Z,89.34
2019-03-26T01:30:50.339Z,89.11
2019-03-26T01:33:21.544Z,88.97
2019-03-26T01:35:51.197Z,88.98
2019-03-26T01:38:20.154Z,85.91
2019-03-26T01:40:51.948Z,84.64
2019-03-26T01:43:21.817Z,86.09
2019-03-26T01:45:53.069Z,86.93
2019-03-26T01:48:32.413Z,88.58
2019-03-26T01:51:07.066Z,88.74
2019-03-26T01:53:38.169Z,87.64
2019-03-26T01:56:08.693Z,88.55
2019-03-26T01:58:38.955Z,88.73
2019-03-26T02:01:11.511Z,88.21
2019-03-26T02:03:43.902Z,88.46
2019-03-26T02:06:13.220Z,89.33
2019-03-26T02:08:46.364Z,88.59
2019-03-26T02:14:06.098Z,88.41
2019-03-26T02:16:36.418Z,89.35
2019-03-26T02:19:05.102Z,89.23
2019-03-26T02:21:35.524Z,89.41
2019-03-26T02:24:09.328Z,89.22
2019-03-26T02:26:38.118Z,89.78
2019-03-26T02:29:08.449Z,91.00
2019-03-26T02:31:40.481Z,90.21
2019-03-26T02:34:12.037Z,87.86
2019-03-26T02:36:44.909Z,88.96
2019-03-26T02:39:13.943Z,89.46
2019-03-26T02:41:47.335Z,90.00
2019-03-26T02:44:22.290Z,89.42
2019-03-26T02:46:52.522Z,90.00
2019-03-26T02:49:22.016Z,89.35
2019-03-26T02:51:51.567Z,89.44
2019-03-26T02:54:23.244Z,89.61
2019-03-26T02:56:55.218Z,87.13
2019-03-26T02:59:25.731Z,88.43
2019-03-26T03:02:05.272Z,86.91
2019-03-26T03:04:37.696Z,84.86
2019-03-26T03:07:11.199Z,85.49
2019-03-26T03:09:42.402Z,87.70
2019-03-26T03:12:17.332Z,89.28
2019-03-26T03:14:49.559Z,90.81
2019-03-26T03:17:19.478Z,90.54
2019-03-26T03:19:49.342Z,90.50
2019-03-26T03:22:19.023Z,90.37
2019-03-26T03:24:48.443Z,90.37
2019-03-26T03:27:22.453Z,90.44
2019-03-26T03:29:57.972Z,90.10
2019-03-26T03:32:29.963Z,90.73
2019-03-26T03:35:02.653Z,90.93
2019-03-26T03:37:32.371Z,90.61
2019-03-26T03:40:03.004Z,88.25
2019-03-26T03:42:32.117Z,89.36
2019-03-26T03:45:06.638Z,90.04
2019-03-26T03:47:36.353Z,89.84
2019-03-26T03:50:08.245Z,89.68
2019-03-26T03:52:41.129Z,90.54
2019-03-26T03:55:13.698Z,91.55
2019-03-26T04:00:36.987Z,94.61
2019-03-26T04:03:07.541Z,93.29
2019-03-26T04:05:37.068Z,91.50
2019-03-26T04:10:53.278Z,92.29
2019-03-26T04:13:24.094Z,92.54
2019-03-26T04:15:55.019Z,93.36
2019-03-26T04:18:27.814Z,93.24
2019-03-26T04:20:57.625Z,93.34
2019-03-26T04:23:28.237Z,92.47
2019-03-26T04:26:00.628Z,92.59
2019-03-26T04:28:31.094Z,93.41
2019-03-26T04:31:03.741Z,92.79
2019-03-26T04:33:33.748Z,92.82
2019-03-26T04:36:04.406Z,93.19
2019-03-26T04:38:33.892Z,93.05
2019-03-26T04:41:05.134Z,92.75
2019-03-26T04:43:38.430Z,93.79
2019-03-26T04:46:08.248Z,93.42
2019-03-26T04:48:38.879Z,92.88
2019-03-26T04:53:55.907Z,92.89
2019-03-26T04:56:27.659Z,92.22
2019-03-26T04:59:04.850Z,91.52
2019-03-26T05:01:35.502Z,91.11
2019-03-26T05:04:07.751Z,90.58
2019-03-26T05:06:46.501Z,89.98
2019-03-26T05:09:18.644Z,90.21
2019-03-26T05:11:51.950Z,89.89
2019-03-26T05:14:29.366Z,89.50
2019-03-26T05:19:40.552Z,88.30
2019-03-26T05:22:23.282Z,88.21
2019-03-26T05:24:43.721Z,88.47
2019-03-26T05:27:15.907Z,88.58
2019-03-26T05:32:32.432Z,89.40
2019-03-26T05:35:05.623Z,89.36
2019-03-26T05:37:34.411Z,89.57
2019-03-26T05:40:08.098Z,90.43
2019-03-26T05:42:42.949Z,90.25
2019-03-26T05:45:21.336Z,90.24
2019-03-26T05:47:58.008Z,89.77
2019-03-26T05:50:28.415Z,90.53
2019-03-26T05:52:58.676Z,90.87
2019-03-26T05:55:28.752Z,90.88
2019-03-26T05:58:02.707Z,90.29
2019-03-26T06:00:33.241Z,89.48
2019-03-26T06:03:04.665Z,89.02
2019-03-26T06:05:37.710Z,88.48
2019-03-26T06:08:07.562Z,88.19
2019-03-26T06:13:19.897Z,88.40
2019-03-26T06:15:52.149Z,87.72
2019-03-26T06:18:23.145Z,86.99
2019-03-26T06:20:53.501Z,86.05
2019-03-26T06:23:25.806Z,85.94
2019-03-26T06:26:03.309Z,86.63
2019-03-26T06:28:27.587Z,87.21
2019-03-26T06:31:00.532Z,86.72
2019-03-26T06:33:29.232Z,85.28
2019-03-26T06:36:01.462Z,85.65
2019-03-26T06:38:36.038Z,85.28
2019-03-26T06:41:04.515Z,85.52
2019-03-26T06:46:15.199Z,85.72
2019-03-26T06:48:47.018Z,86.37
2019-03-26T06:51:15.944Z,86.28
2019-03-26T06:53:51.380Z,85.73
2019-03-26T06:56:21.607Z,85.37
2019-03-26T06:58:53.054Z,85.01
2019-03-26T07:01:24.269Z,84.91
2019-03-26T07:03:53.299Z,85.50
2019-03-26T07:06:24.954Z,84.07
2019-03-26T07:08:57.467Z,83.47
2019-03-26T07:11:29.020Z,84.28
2019-03-26T07:14:02.765Z,82.60
2019-03-26T07:19:35.304Z,80.96
2019-03-26T07:22:04.588Z,79.75
2019-03-26T07:24:39.307Z,80.60
2019-03-26T07:27:06.766Z,81.04
2019-03-26T07:29:43.571Z,80.81
2019-03-26T07:32:14.172Z,78.36
2019-03-26T07:34:48.197Z,77.90
2019-03-26T07:37:19.319Z,78.83
2019-03-26T07:39:49.937Z,76.21
2019-03-26T07:42:20.891Z,74.78
2019-03-26T07:44:51.960Z,75.55
2019-03-26T07:47:22.621Z,73.67
2019-03-26T07:52:52.322Z,72.72
2019-03-26T07:55:36.963Z,75.91
2019-03-26T07:58:07.633Z,76.97
2019-03-26T08:00:39.180Z,73.17
2019-03-26T08:05:55.251Z,74.13
2019-03-26T08:08:37.145Z,73.27
2019-03-26T08:11:09.111Z,73.52
2019-03-26T08:13:40.934Z,72.29
2019-03-26T08:16:08.040Z,72.70
2019-03-26T08:18:38.596Z,73.05
2019-03-26T08:21:09.537Z,72.89
2019-03-26T08:23:41.806Z,73.08
2019-03-26T08:26:14.971Z,74.25
2019-03-26T08:28:44.773Z,71.05
2019-03-26T08:31:14.580Z,74.96
2019-03-26T08:33:49.333Z,75.80
2019-03-26T08:36:22.152Z,74.96
2019-03-26T08:38:51.530Z,75.46
2019-03-26T08:41:28.609Z,72.08
2019-03-26T08:44:02.129Z,70.86
2019-03-26T08:49:16.410Z,72.46
2019-03-26T08:51:56.179Z,71.46
2019-03-26T08:54:26.591Z,70.62
2019-03-26T08:56:59.365Z,71.67
2019-03-26T08:59:29.281Z,71.88
2019-03-26T09:02:00.222Z,70.44
2019-03-26T09:04:30.146Z,69.04
2019-03-26T09:07:01.072Z,70.30
2019-03-26T09:09:30.986Z,69.40
2019-03-26T09:12:01.589Z,68.11
2019-03-26T09:14:31.985Z,67.71
2019-03-26T09:17:02.858Z,65.23
2019-03-26T09:19:32.327Z,67.23
2019-03-26T09:22:05.247Z,63.81
2019-03-26T09:24:34.860Z,65.08
2019-03-26T09:27:10.017Z,64.97
2019-03-26T09:29:40.258Z,62.81
2019-03-26T09:32:11.528Z,63.38
2019-03-26T09:34:42.710Z,64.07
2019-03-26T09:37:12.097Z,61.35
2019-03-26T09:42:28.080Z,64.29
2019-03-26T09:44:59.304Z,61.44
2019-03-26T09:47:30.878Z,62.51
2019-03-26T09:50:04.438Z,59.48
2019-03-26T09:52:33.407Z,57.57
2019-03-26T09:55:06.232Z,57.85
2019-03-26T09:57:36.019Z,58.61
2019-03-26T10:00:12.024Z,62.97
2019-03-26T10:02:44.419Z,60.37
2019-03-26T10:05:15.884Z,59.46
2019-03-26T10:07:47.359Z,60.76
2019-03-26T10:10:18.554Z,58.30
2019-03-26T10:12:51.611Z,61.38
2019-03-26T10:15:22.584Z,62.78
2019-03-26T10:17:58.189Z,63.16
2019-03-26T10:20:28.543Z,63.24
2019-03-26T10:23:03.488Z,63.23
2019-03-26T10:25:33.530Z,60.27
2019-03-26T10:28:03.917Z,62.88
2019-03-26T10:30:39.238Z,61.58
2019-03-26T10:33:18.190Z,62.51
2019-03-26T10:35:49.329Z,61.87
2019-03-26T10:38:19.785Z,60.27
2019-03-26T10:40:58.198Z,60.02
2019-03-26T10:43:30.415Z,61.31
2019-03-26T10:45:59.209Z,61.62
2019-03-26T10:48:33.655Z,62.94
2019-03-26T10:51:04.278Z,63.92
2019-03-26T10:53:38.090Z,62.75
2019-03-26T10:56:10.614Z,63.22
2019-03-26T10:58:44.323Z,64.29
2019-03-26T11:01:16.950Z,65.03
2019-03-26T11:03:48.415Z,64.13
2019-03-26T11:06:21.276Z,64.75
2019-03-26T11:08:55.312Z,63.99
2019-03-26T11:11:27.269Z,63.65
2019-03-26T11:14:02.262Z,63.90
2019-03-26T11:16:34.424Z,63.91
2019-03-26T11:19:04.448Z,62.33
2019-03-26T11:21:38.626Z,63.69
2019-03-26T11:24:07.039Z,63.07
2019-03-26T11:26:35.848Z,61.56
2019-03-26T11:29:06.340Z,61.48
2019-03-26T11:31:36.567Z,62.90
2019-03-26T11:36:55.443Z,59.88
2019-03-26T11:39:32.736Z,59.56
2019-03-26T11:42:03.673Z,59.68
2019-03-26T11:44:33.568Z,61.07
2019-03-26T11:47:07.192Z,58.64
2019-03-26T11:49:35.777Z,59.49
2019-03-26T11:52:06.305Z,58.40
2019-03-26T11:54:35.504Z,57.47
2019-03-26T11:57:05.166Z,57.49
2019-03-26T11:59:35.328Z,55.63
2019-03-26T12:02:05.047Z,54.61
2019-03-26T12:04:36.721Z,58.62
2019-03-26T12:07:10.995Z,56.44
2019-03-26T12:09:46.458Z,54.10
2019-03-26T12:12:13.770Z,55.84
2019-03-26T12:14:46.595Z,56.27
2019-03-26T12:17:19.373Z,55.66
2019-03-26T12:19:51.240Z,58.26
2019-03-26T12:22:26.498Z,57.57
2019-03-26T12:24:56.601Z,59.15
2019-03-26T12:27:26.613Z,60.93
2019-03-26T12:30:00.374Z,60.16
2019-03-26T12:32:30.642Z,59.23
2019-03-26T12:35:04.280Z,61.33
2019-03-26T12:37:33.490Z,59.81
2019-03-26T12:40:07.066Z,60.68
2019-03-26T12:45:20.564Z,59.69
2019-03-26T12:47:50.022Z,56.14
2019-03-26T12:50:24.746Z,58.00
2019-03-26T12:52:58.857Z,56.08
2019-03-26T12:55:30.693Z,56.49
2019-03-26T12:58:02.823Z,58.85
2019-03-26T13:00:36.983Z,57.46
2019-03-26T13:03:09.144Z,57.79
2019-03-26T13:05:39.838Z,56.24
2019-03-26T13:08:15.233Z,57.01
2019-03-26T13:10:53.326Z,55.97
2019-03-26T13:13:15.866Z,56.87
2019-03-26T13:15:48.669Z,56.73
2019-03-26T13:18:21.145Z,56.18
2019-03-26T13:20:52.142Z,56.18
2019-03-26T13:26:02.747Z,53.39
2019-03-26T13:28:39.483Z,54.33
2019-03-26T13:31:08.531Z,53.37
2019-03-26T13:33:43.679Z,52.71
2019-03-26T13:36:14.115Z,52.73
2019-03-26T13:38:47.146Z,52.91
2019-03-26T13:41:19.741Z,51.28
2019-03-26T13:43:48.734Z,51.74
2019-03-26T13:46:22.276Z,48.30
2019-03-26T13:51:32.626Z,47.54
2019-03-26T13:54:03.671Z,49.91
2019-03-26T13:56:33.446Z,50.77
2019-03-26T13:59:04.186Z,50.14
2019-03-26T14:01:38.216Z,51.25
2019-03-26T14:06:57.997Z,52.83
2019-03-26T14:09:27.910Z,56.33
2019-03-26T14:11:59.468Z,55.52
2019-03-26T14:14:30.922Z,55.76
2019-03-26T14:17:05.447Z,55.79
2019-03-26T14:19:33.669Z,54.45
2019-03-26T14:22:05.016Z,55.50
2019-03-26T14:24:36.212Z,54.49
2019-03-26T14:27:06.436Z,54.25
2019-03-26T14:29:44.988Z,55.26
2019-03-26T14:32:17.221Z,52.58
2019-03-26T14:34:53.697Z,52.69
2019-03-26T14:37:18.814Z,54.37
2019-03-26T14:39:50.747Z,53.56
2019-03-26T14:42:20.876Z,53.79
2019-03-26T14:44:57.747Z,55.24
2019-03-26T14:47:32.602Z,53.41
2019-03-26T14:50:05.051Z,54.11
2019-03-26T14:52:35.117Z,53.89
2019-03-26T14:55:09.970Z,54.18
2019-03-26T14:57:42.885Z,53.52
2019-03-26T15:00:14.280Z,52.29
2019-03-26T15:02:47.121Z,54.39
2019-03-26T15:07:59.771Z,54.65
2019-03-26T15:10:30.809Z,54.54
2019-03-26T15:15:41.066Z,53.76
2019-03-26T15:18:13.474Z,52.88
2019-03-26T15:20:44.298Z,53.36
2019-03-26T15:23:14.496Z,52.31
2019-03-26T15:25:44.940Z,52.71
2019-03-26T15:30:57.137Z,54.13
2019-03-26T15:33:29.184Z,51.35
2019-03-26T15:36:03.388Z,52.34
2019-03-26T15:38:35.039Z,53.25
2019-03-26T15:41:06.467Z,51.92
2019-03-26T15:43:39.674Z,52.46
2019-03-26T15:48:53.738Z,53.30
2019-03-26T15:51:25.094Z,49.93
2019-03-26T15:53:55.213Z,50.26
2019-03-26T15:56:25.140Z,49.05
2019-03-26T15:58:55.058Z,51.15
2019-03-26T16:01:25.576Z,50.38
2019-03-26T16:03:55.599Z,51.18
2019-03-26T16:06:25.947Z,50.50
2019-03-26T16:08:55.833Z,49.94
2019-03-26T16:14:08.692Z,51.35
2019-03-26T16:16:40.985Z,50.90
2019-03-26T16:19:17.984Z,51.52
2019-03-26T16:21:48.635Z,50.55
2019-03-26T16:24:21.241Z,50.97
2019-03-26T16:26:54.821Z,53.51
2019-03-26T16:29:26.131Z,52.51
2019-03-26T16:31:56.996Z,54.41
2019-03-26T16:34:28.567Z,52.97
2019-03-26T16:37:00.178Z,52.76
2019-03-26T16:39:35.076Z,53.65
2019-03-26T16:42:05.011Z,54.38
2019-03-26T16:44:36.031Z,54.20
2019-03-26T16:47:05.120Z,55.86
2019-03-26T16:49:33.895Z,56.15
2019-03-26T16:52:03.034Z,55.66
2019-03-26T16:54:37.299Z,56.10
2019-03-26T16:57:07.856Z,57.07
2019-03-26T16:59:38.283Z,58.43
2019-03-26T17:04:52.141Z,56.87
2019-03-26T17:07:23.284Z,56.85
2019-03-26T17:09:54.650Z,57.23
2019-03-26T17:12:29.044Z,57.38
2019-03-26T17:14:55.667Z,56.99
2019-03-26T17:17:27.161Z,57.33
2019-03-26T17:19:56.058Z,57.22
2019-03-26T17:22:25.899Z,57.14
2019-03-26T17:24:55.810Z,58.90
2019-03-26T17:27:30.700Z,60.26
2019-03-26T17:30:05.828Z,60.46
2019-03-26T17:32:36.846Z,60.04
2019-03-26T17:35:13.916Z,61.28
2019-03-26T17:37:59.665Z,60.86
2019-03-26T17:40:30.688Z,59.80
2019-03-26T17:43:01.931Z,61.55
2019-03-26T17:45:35.961Z,61.40
2019-03-26T17:48:09.078Z,62.75
2019-03-26T17:50:44.175Z,65.52
2019-03-26T17:53:12.249Z,66.85
2019-03-26T17:55:45.032Z,65.28
2019-03-26T17:58:20.233Z,63.39
2019-03-26T18:00:51.041Z,63.35
2019-03-26T18:03:26.754Z,63.99
2019-03-26T18:08:30.443Z,63.89
2019-03-26T18:11:01.026Z,65.12
2019-03-26T18:13:30.945Z,64.20
2019-03-26T18:16:02.728Z,65.90
2019-03-26T18:18:32.229Z,65.80
2019-03-26T18:21:01.055Z,65.60
2019-03-26T18:23:29.518Z,66.01
2019-03-26T18:26:03.338Z,66.11
2019-03-26T18:28:36.952Z,67.00
2019-03-26T18:31:10.132Z,67.69
2019-03-26T18:33:40.888Z,67.01
2019-03-26T18:36:10.542Z,66.50
2019-03-26T18:38:42.627Z,66.71
2019-03-26T18:41:15.519Z,65.22
2019-03-26T18:43:44.103Z,68.34
2019-03-26T18:46:17.398Z,68.08
2019-03-26T18:51:27.882Z,68.01
2019-03-26T18:56:37.353Z,67.61
2019-03-26T18:59:09.789Z,68.46
2019-03-26T19:01:37.530Z,69.11
2019-03-26T19:04:07.125Z,69.17
2019-03-26T19:06:36.667Z,67.01
2019-03-26T19:09:07.603Z,67.50
2019-03-26T19:11:40.188Z,68.65
2019-03-26T19:14:12.098Z,66.99
2019-03-26T19:16:44.770Z,68.56
2019-03-26T19:19:18.344Z,68.48
2019-03-26T19:21:45.399Z,69.82
2019-03-26T19:24:16.175Z,71.22
2019-03-26T19:26:47.320Z,71.88
2019-03-26T19:29:17.769Z,70.51
2019-03-26T19:31:49.034Z,69.98
2019-03-26T19:34:22.557Z,70.43
2019-03-26T19:36:53.472Z,69.82
2019-03-26T19:39:25.324Z,68.71
2019-03-26T19:41:54.919Z,69.58
2019-03-26T19:44:28.619Z,70.03
2019-03-26T19:46:59.171Z,68.33
2019-03-26T19:49:31.769Z,67.37
2019-03-26T19:52:02.760Z,69.51
2019-03-26T19:54:32.676Z,69.93
2019-03-26T19:57:01.649Z,70.35
2019-03-26T19:59:33.549Z,70.96
2019-03-26T20:02:03.494Z,70.92
2019-03-26T20:04:32.302Z,70.94
2019-03-26T20:07:03.287Z,70.21
2019-03-26T20:09:32.822Z,70.83
2019-03-26T20:12:03.285Z,71.54
2019-03-26T20:14:36.445Z,72.15
2019-03-26T20:17:05.990Z,72.94
2019-03-26T20:19:36.834Z,72.88
2019-03-26T20:22:06.730Z,71.98
2019-03-26T20:24:38.178Z,72.63
2019-03-26T20:27:07.344Z,72.17
2019-03-26T20:29:37.440Z,72.61
2019-03-26T20:32:07.871Z,73.79
2019-03-26T20:34:37.758Z,75.80
2019-03-26T20:37:08.624Z,75.53
2019-03-26T20:39:38.637Z,75.09
2019-03-26T20:42:11.906Z,74.02
2019-03-26T20:44:43.154Z,75.04
2019-03-26T20:47:14.425Z,74.49
2019-03-26T20:52:26.439Z,73.88
2019-03-26T20:54:56.851Z,74.12
2019-03-26T20:57:28.004Z,73.58
2019-03-26T20:59:58.244Z,74.70
2019-03-26T21:02:40.371Z,75.68
2019-03-26T21:05:11.838Z,74.85
2019-03-26T21:10:29.731Z,74.39
2019-03-26T21:13:03.833Z,75.28
2019-03-26T21:15:33.658Z,73.34
2019-03-26T21:18:05.618Z,75.26
2019-03-26T21:23:32.405Z,77.30
2019-03-26T21:26:05.147Z,78.90
2019-03-26T21:28:39.247Z,81.33
2019-03-26T21:31:10.013Z,81.87
2019-03-26T21:33:39.951Z,81.48
2019-03-26T21:38:56.900Z,79.05
2019-03-26T21:41:27.091Z,78.12
2019-03-26T21:44:04.612Z,77.92
2019-03-26T21:46:28.356Z,77.89
2019-03-26T21:48:59.794Z,77.87
2019-03-26T21:51:28.550Z,78.16
2019-03-26T21:53:58.292Z,78.19
2019-03-26T21:56:29.704Z,78.07
2019-03-26T21:58:58.821Z,79.43
2019-03-26T22:04:08.368Z,79.39
2019-03-26T22:06:42.808Z,81.02
2019-03-26T22:09:19.090Z,81.82
2019-03-26T22:11:53.120Z,84.66
2019-03-26T22:14:29.180Z,84.68
2019-03-26T22:16:59.796Z,85.37
2019-03-26T22:22:10.529Z,84.06
2019-03-26T22:24:41.443Z,84.44
2019-03-26T22:27:11.321Z,84.23
2019-03-26T22:29:46.089Z,83.46
2019-03-26T22:32:18.563Z,83.47
2019-03-26T22:37:30.602Z,82.75
2019-03-26T22:39:59.852Z,81.61
2019-03-26T22:42:30.106Z,81.08
2019-03-26T22:45:02.302Z,80.62
2019-03-26T22:47:39.154Z,79.97
2019-03-26T22:52:53.807Z,79.12
2019-03-26T22:55:25.504Z,79.52
2019-03-26T22:57:59.812Z,79.09
2019-03-26T23:00:26.993Z,79.52
2019-03-26T23:02:58.598Z,76.97
2019-03-26T23:05:31.692Z,78.50
2019-03-26T23:08:00.012Z,77.53
2019-03-26T23:10:31.897Z,77.98
2019-03-26T23:13:05.988Z,76.39
2019-03-26T23:15:44.743Z,77.11
2019-03-26T23:18:16.726Z,77.39
2019-03-26T23:20:48.247Z,77.15
2019-03-26T23:23:17.223Z,75.36
2019-03-26T23:25:47.261Z,76.42
2019-03-26T23:28:18.167Z,75.65
2019-03-26T23:30:48.492Z,78.10
2019-03-26T23:35:58.361Z,77.29
2019-03-26T23:38:30.115Z,76.75
2019-03-26T23:41:01.362Z,78.60
2019-03-26T23:43:34.110Z,76.08
2019-03-26T23:46:06.926Z,77.26
2019-03-26T23:48:36.311Z,76.13
2019-03-26T23:51:16.069Z,77.69
2019-03-26T23:53:50.073Z,75.14
2019-03-26T23:56:16.514Z,77.25
2019-03-26T23:58:46.819Z,77.05
